Portada
METAR-TAF:

METAR-TAF

Aeroports :

Ranchi, Índia

latitud: 23-18-51N, longitud: 85-19-18E, altitud: 646 m

Observació

L'informe es va fer fa 28 minuts, a les 10:30 UTC
Vent 3 kt del Nord-Est
Temperatura 25°C
Humitat 50%
Pressió 1016 hPa
Visibilitat: 4000 m
calitja

METAR: VERC 211030Z 05003KT 4000 HZ NSC 25/14 Q1016 NOSIG

Hora: 16:28 (10:58 UTC)

Pronòstic

L'informe es va fer fa 2 hores i 58 minuts, a les 08:00 UTC
Pronòstic vàlid del 21 a les 09 UTC al 21 a les 18 UTC
Vent kt del Nord
Visibilitat: 4000 m
calitja
Evolucionant progressivament
l' 21 a les 15 UTC al 21 a les 17 UTC
Vent kt del Nord
Visibilitat: 3000 m
calitja

TAF: VERC 210800Z 2109/2118 00000KT 4000 HZ NSC BECMG 2115/2117 00000KT 3000 HZ

Observacions i pronòstics meteorològics de més de 4000 aeroports (METAR i TAF).

Les estacions disponibles són els punts grocs i vermells al mapa.

Posi el ratolí al punt desitjat per veure el nom de l'estació.

Feu clic per veure les observacions i els pronòstics meteorològics.

Per canviar el mapa: feu clic els botons verds amb una creu de color negre per apropar; al botó verd amb un guió per allunyar la imatge; o en les fletxes verdes per a mapes adjacents.


METAR-TAF: